Ramstein Air Base ETAR

Flugplatz Daten

Name: Ramstein Air Base

Ident: ETAR

Lat: 49,43690109

Long: 7,600279808

Platzhöhe: 776 ft

IataCode: RMS

City: Ramstein

Homepage: http://www.ramstein.af.mil/

Metar

2022/08/15 17:56
ETAR 151756Z AUTO 21008KT 9999 SCT090 BKN110 23/15 A2972 RMK AO2 SLP059 T02270150 10260 20202 55005

Taf

2022/08/15 18:06
TAF ETAR 151800Z 1518/1624 21009KT 9999 SCT040 QNH2974INS
BECMG 1601/1602 VRB06KT 5000 -DZ BR BKN025 QNH2975INS
BECMG 1607/1608 23006KT 9999 NSW BKN030 QNH2979INS
BECMG 1611/1612 24009KT 9999 SCT050 QNH2982INS
BECMG 1617/1618 VRB06KT 9999 SKC QNH2982INS TX30/1614Z TN14/1604Z
Gewünschte Webcam nicht vorhanden? Dann fügen Sie eine hinzu. Sie wird dann so schnell wie möglich freigeschaltet
Url: Title: